Private Wetterstation Sandau
Wetterdaten: Dienstag, 02.10.2012
Datum Zeit Temp. A. Feuchte A. Luftdruck Regen Wind Richtung Richtung Taupunkt Windchill
02.10.2012 00:01 8,3 C 82 % 1016,1 hPa 0,0 l/m 1,4 km/h (1 Bft) SO 135 5,4 C 8,3 C
02.10.2012 00:06 8,2 C 82 % 1016,0 hPa 0,0 l/m 1,4 km/h (1 Bft) SO 135 5,3 C 8,2 C
02.10.2012 00:11 8,1 C 82 % 1016,1 hPa 0,0 l/m 2,5 km/h (1 Bft) SO 135 5,2 C 8,1 C
02.10.2012 00:16 8,1 C 83 % 1016,0 hPa 0,0 l/m 3,2 km/h (1 Bft) SO 135 5,4 C 8,1 C
02.10.2012 00:21 8,2 C 83 % 1015,9 hPa 0,0 l/m 3,2 km/h (1 Bft) SO 135 5,5 C 8,2 C
02.10.2012 00:26 8,2 C 83 % 1015,9 hPa 0,0 l/m 2,2 km/h (1 Bft) SO 135 5,5 C 8,2 C
02.10.2012 00:31 8,1 C 83 % 1015,8 hPa 0,0 l/m 0,0 km/h (0 Bft) S 180 5,4 C 8,1 C
02.10.2012 00:36 8,1 C 83 % 1016,0 hPa 0,0 l/m 0,0 km/h (0 Bft) S 180 5,4 C 8,1 C
02.10.2012 00:41 8,1 C 83 % 1015,8 hPa 0,0 l/m 0,0 km/h (0 Bft) S-SO 157 5,4 C 8,1 C
02.10.2012 00:46 7,9 C 83 % 1015,8 hPa 0,0 l/m 1,4 km/h (1 Bft) S-SO 157 5,2 C 7,9 C
02.10.2012 00:51 7,9 C 83 % 1015,9 hPa 0,0 l/m 0,0 km/h (0 Bft) S-SO 157 5,2 C 7,9 C
02.10.2012 00:56 7,8 C 83 % 1015,9 hPa 0,0 l/m 1,4 km/h (1 Bft) S-SO 157 5,1 C 7,8 C
02.10.2012 01:01 7,8 C 83 % 1015,9 hPa 0,0 l/m 0,0 km/h (0 Bft) SO 135 5,1 C 7,8 C
02.10.2012 01:06 7,8 C 83 % 1015,9 hPa 0,0 l/m 0,0 km/h (0 Bft) S 180 5,1 C 7,8 C
02.10.2012 01:11 7,8 C 83 % 1015,9 hPa 0,0 l/m 2,5 km/h (1 Bft) S-SO 157 5,1 C 7,8 C
02.10.2012 01:16 7,8 C 83 % 1015,8 hPa 0,0 l/m 0,0 km/h (0 Bft) SO 135 5,1 C 7,8 C
02.10.2012 01:21 7,8 C 83 % 1016,0 hPa 0,0 l/m 0,0 km/h (0 Bft) S-SO 157 5,1 C 7,8 C
02.10.2012 01:26 7,6 C 83 % 1015,8 hPa 0,0 l/m 0,0 km/h (0 Bft) S-SO 157 4,9 C 7,6 C
02.10.2012 01:31 7,6 C 83 % 1015,9 hPa 0,0 l/m 2,9 km/h (1 Bft) SO 135 4,9 C 7,6 C
02.10.2012 01:36 7,6 C 83 % 1015,7 hPa 0,0 l/m 5,0 km/h (1 Bft) S-SO 157 4,9 C 7,0 C
02.10.2012 01:41 7,6 C 84 % 1015,8 hPa 0,0 l/m 4,7 km/h (1 Bft) S-SO 157 5,1 C 7,1 C
02.10.2012 01:46 7,6 C 84 % 1015,8 hPa 0,0 l/m 2,2 km/h (1 Bft) SO 135 5,1 C 7,6 C
02.10.2012 01:51 7,8 C 84 % 1015,8 hPa 0,0 l/m 2,2 km/h (1 Bft) S-SO 157 5,3 C 7,8 C
02.10.2012 01:56 7,8 C 84 % 1015,8 hPa 0,0 l/m 2,5 km/h (1 Bft) S-SO 157 5,3 C 7,8 C
02.10.2012 02:01 7,8 C 84 % 1015,8 hPa 0,0 l/m 1,4 km/h (1 Bft) S-SO 157 5,3 C 7,8 C
02.10.2012 02:06 7,8 C 84 % 1015,9 hPa 0,0 l/m 1,1 km/h (1 Bft) SO 135 5,3 C 7,8 C
02.10.2012 02:11 7,8 C 84 % 1015,8 hPa 0,0 l/m 2,9 km/h (1 Bft) S-SO 157 5,3 C 7,8 C
02.10.2012 02:16 7,8 C 84 % 1015,9 hPa 0,0 l/m 0,0 km/h (0 Bft) S-SO 157 5,3 C 7,8 C
02.10.2012 02:21 7,6 C 84 % 1015,8 hPa 0,0 l/m 2,5 km/h (1 Bft) S-SO 157 5,1 C 7,6 C
02.10.2012 02:26 7,6 C 84 % 1015,8 hPa 0,0 l/m 0,0 km/h (0 Bft) S 180 5,1 C 7,6 C
02.10.2012 02:31 7,4 C 84 % 1015,9 hPa 0,0 l/m 2,5 km/h (1 Bft) S-SO 157 4,9 C 7,4 C
02.10.2012 02:36 7,4 C 84 % 1015,9 hPa 0,0 l/m 1,4 km/h (1 Bft) SO 135 4,9 C 7,4 C
02.10.2012 02:41 7,4 C 84 % 1015,9 hPa 0,0 l/m 3,2 km/h (1 Bft) S-SO 157 4,9 C 7,4 C
02.10.2012 02:46 7,4 C 85 % 1015,9 hPa 0,0 l/m 4,3 km/h (1 Bft) SO 135 5,0 C 7,4 C
02.10.2012 02:51 7,4 C 85 % 1015,9 hPa 0,0 l/m 3,6 km/h (1 Bft) S-SW 202 5,0 C 7,4 C
02.10.2012 02:56 7,4 C 85 % 1015,8 hPa 0,0 l/m 4,3 km/h (1 Bft) S-SO 157 5,0 C 7,4 C
02.10.2012 03:01 7,3 C 85 % 1015,8 hPa 0,0 l/m 4,7 km/h (1 Bft) S-SO 157 4,9 C 6,8 C
02.10.2012 03:06 7,3 C 85 % 1015,9 hPa 0,0 l/m 5,0 km/h (1 Bft) S 180 4,9 C 6,7 C
02.10.2012 03:11 7,3 C 85 % 1015,7 hPa 0,0 l/m 3,2 km/h (1 Bft) SO 135 4,9 C 7,3 C
02.10.2012 03:16 7,3 C 85 % 1015,7 hPa 0,0 l/m 3,2 km/h (1 Bft) S 180 4,9 C 7,3 C
02.10.2012 03:21 7,3 C 85 % 1015,6 hPa 0,0 l/m 0,0 km/h (0 Bft) S-SO 157 4,9 C 7,3 C
02.10.2012 03:26 7,3 C 85 % 1015,6 hPa 0,0 l/m 3,6 km/h (1 Bft) S-SO 157 4,9 C 7,3 C
02.10.2012 03:31 7,3 C 85 % 1015,6 hPa 0,0 l/m 0,0 km/h (0 Bft) SO 135 4,9 C 7,3 C
02.10.2012 03:36 7,2 C 85 % 1015,5 hPa 0,0 l/m 0,0 km/h (0 Bft) S-SO 157 4,9 C 7,2 C
02.10.2012 03:41 7,2 C 85 % 1015,5 hPa 0,0 l/m 1,4 km/h (1 Bft) SO 135 4,9 C 7,2 C
02.10.2012 03:46 7,2 C 85 % 1015,5 hPa 0,0 l/m 0,0 km/h (0 Bft) S-SO 157 4,9 C 7,2 C
02.10.2012 03:51 7,1 C 85 % 1015,6 hPa 0,0 l/m 1,8 km/h (1 Bft) S-SO 157 4,8 C 7,1 C
02.10.2012 03:56 7,1 C 85 % 1015,6 hPa 0,0 l/m 2,5 km/h (1 Bft) SO 135 4,8 C 7,1 C
02.10.2012 04:01 7,0 C 85 % 1015,5 hPa 0,0 l/m 2,9 km/h (1 Bft) S-SO 157 4,7 C 7,0 C
02.10.2012 04:06 6,9 C 85 % 1015,5 hPa 0,0 l/m 0,0 km/h (0 Bft) S-SO 157 4,6 C 6,9 C
02.10.2012 04:11 6,9 C 86 % 1015,5 hPa 0,0 l/m 0,0 km/h (0 Bft) S-SO 157 4,7 C 6,9 C
02.10.2012 04:16 6,9 C 86 % 1015,6 hPa 0,0 l/m 0,0 km/h (0 Bft) SO 135 4,7 C 6,9 C
02.10.2012 04:21 6,9 C 86 % 1015,6 hPa 0,0 l/m 1,4 km/h (1 Bft) S-SO 157 4,7 C 6,9 C
02.10.2012 04:26 6,9 C 86 % 1015,5 hPa 0,0 l/m 2,5 km/h (1 Bft) SO 135 4,7 C 6,9 C
02.10.2012 04:31 6,8 C 86 % 1015,6 hPa 0,0 l/m 0,0 km/h (0 Bft) SO 135 4,6 C 6,8 C
02.10.2012 04:36 6,8 C 86 % 1015,6 hPa 0,0 l/m 1,4 km/h (1 Bft) S-SO 157 4,6 C 6,8 C
02.10.2012 04:41 6,8 C 86 % 1015,5 hPa 0,0 l/m 1,4 km/h (1 Bft) S-SO 157 4,6 C 6,8 C
02.10.2012 04:46 6,7 C 86 % 1015,5 hPa 0,0 l/m 0,0 km/h (0 Bft) SO 135 4,5 C 6,7 C
02.10.2012 04:51 6,6 C 86 % 1015,6 hPa 0,0 l/m 1,8 km/h (1 Bft) S-SO 157 4,4 C 6,6 C
02.10.2012 04:56 6,6 C 86 % 1015,4 hPa 0,0 l/m 0,0 km/h (0 Bft) SO 135 4,4 C 6,6 C
02.10.2012 05:01 6,6 C 87 % 1015,6 hPa 0,0 l/m 1,8 km/h (1 Bft) SO 135 4,6 C 6,6 C
02.10.2012 05:06 6,5 C 87 % 1015,5 hPa 0,0 l/m 0,0 km/h (0 Bft) SO 135 4,5 C 6,5 C
02.10.2012 05:11 6,5 C 87 % 1015,4 hPa 0,0 l/m 0,0 km/h (0 Bft) SO 135 4,5 C 6,5 C
02.10.2012 05:16 6,4 C 87 % 1015,5 hPa 0,0 l/m 0,0 km/h (0 Bft) SO 135 4,4 C 6,4 C
02.10.2012 05:21 6,4 C 87 % 1015,5 hPa 0,0 l/m 2,9 km/h (1 Bft) SO 135 4,4 C 6,4 C
02.10.2012 05:26 6,4 C 87 % 1015,6 hPa 0,0 l/m 2,2 km/h (1 Bft) S-SO 157 4,4 C 6,4 C
02.10.2012 05:31 6,4 C 87 % 1015,5 hPa 0,0 l/m 5,8 km/h (2 Bft) S-SW 202 4,4 C 5,4 C
02.10.2012 05:36 6,4 C 87 % 1015,7 hPa 0,0 l/m 6,5 km/h (2 Bft) SO 135 4,4 C 5,2 C
02.10.2012 05:41 6,4 C 87 % 1015,6 hPa 0,0 l/m 5,8 km/h (2 Bft) SO 135 4,4 C 5,4 C
02.10.2012 05:46 6,4 C 87 % 1015,6 hPa 0,0 l/m 5,0 km/h (1 Bft) SO 135 4,4 C 5,7 C
02.10.2012 05:51 6,4 C 87 % 1015,6 hPa 0,0 l/m 6,5 km/h (2 Bft) S-SO 157 4,4 C 5,2 C
02.10.2012 05:56 6,4 C 87 % 1015,7 hPa 0,0 l/m 2,9 km/h (1 Bft) SO 135 4,4 C 6,4 C
02.10.2012 06:01 6,5 C 87 % 1015,6 hPa 0,0 l/m 2,9 km/h (1 Bft) S-SO 157 4,5 C 6,5 C
02.10.2012 06:06 6,5 C 88 % 1015,7 hPa 0,0 l/m 3,2 km/h (1 Bft) S 180 4,7 C 6,5 C
02.10.2012 06:11 6,5 C 87 % 1015,7 hPa 0,0 l/m 3,2 km/h (1 Bft) S-SO 157 4,5 C 6,5 C
02.10.2012 06:16 6,5 C 88 % 1015,5 hPa 0,0 l/m 4,0 km/h (1 Bft) S 180 4,7 C 6,5 C
02.10.2012 06:21 6,5 C 88 % 1015,6 hPa 0,0 l/m 2,2 km/h (1 Bft) S-SO 157 4,7 C 6,5 C
02.10.2012 06:26 6,6 C 88 % 1015,7 hPa 0,0 l/m 4,7 km/h (1 Bft) S 180 4,8 C 6,0 C
02.10.2012 06:31 6,6 C 88 % 1015,7 hPa 0,0 l/m 3,6 km/h (1 Bft) SO 135 4,8 C 6,6 C
02.10.2012 06:36 6,6 C 88 % 1015,7 hPa 0,0 l/m 5,8 km/h (2 Bft) S-SO 157 4,8 C 5,6 C
02.10.2012 06:41 6,7 C 88 % 1015,7 hPa 0,0 l/m 2,9 km/h (1 Bft) S-SO 157 4,9 C 6,7 C
02.10.2012 06:46 6,7 C 88 % 1015,9 hPa 0,0 l/m 3,6 km/h (1 Bft) SO 135 4,9 C 6,7 C
02.10.2012 06:51 6,8 C 88 % 1015,9 hPa 0,0 l/m 5,0 km/h (1 Bft) S-SO 157 5,0 C 6,1 C
02.10.2012 06:56 6,8 C 88 % 1016,1 hPa 0,0 l/m 5,4 km/h (1 Bft) S-SO 157 5,0 C 6,0 C
02.10.2012 07:01 6,9 C 88 % 1016,1 hPa 0,0 l/m 3,2 km/h (1 Bft) S-SO 157 5,1 C 6,9 C
02.10.2012 07:06 6,9 C 88 % 1016,0 hPa 0,0 l/m 0,0 km/h (0 Bft) S-SW 202 5,1 C 6,9 C
02.10.2012 07:11 6,9 C 87 % 1016,0 hPa 0,0 l/m 1,1 km/h (1 Bft) S 180 4,9 C 6,9 C
02.10.2012 07:16 6,9 C 88 % 1016,0 hPa 0,0 l/m 3,2 km/h (1 Bft) S 180 5,1 C 6,9 C
02.10.2012 07:21 7,0 C 88 % 1016,1 hPa 0,0 l/m 5,4 km/h (1 Bft) S 180 5,2 C 6,2 C
02.10.2012 07:26 7,1 C 88 % 1016,0 hPa 0,0 l/m 3,6 km/h (1 Bft) S-SO 157 5,2 C 7,1 C
02.10.2012 07:31 7,1 C 88 % 1016,0 hPa 0,0 l/m 4,7 km/h (1 Bft) S 180 5,2 C 6,6 C
02.10.2012 07:36 7,1 C 88 % 1016,3 hPa 0,0 l/m 3,6 km/h (1 Bft) S-SW 202 5,2 C 7,1 C
02.10.2012 07:41 7,1 C 88 % 1016,3 hPa 0,0 l/m 2,5 km/h (1 Bft) S 180 5,2 C 7,1 C
02.10.2012 07:46 7,2 C 88 % 1016,4 hPa 0,0 l/m 5,0 km/h (1 Bft) S-SW 202 5,3 C 6,6 C
02.10.2012 07:51 7,2 C 88 % 1016,4 hPa 0,0 l/m 3,6 km/h (1 Bft) S-SO 157 5,3 C 7,2 C
02.10.2012 07:56 7,3 C 88 % 1016,3 hPa 0,0 l/m 0,0 km/h (0 Bft) S-SW 202 5,4 C 7,3 C
02.10.2012 08:01 7,5 C 88 % 1016,3 hPa 0,0 l/m 4,0 km/h (1 Bft) S 180 5,6 C 7,5 C
02.10.2012 08:06 7,8 C 88 % 1016,3 hPa 0,0 l/m 6,1 km/h (2 Bft) S 180 5,9 C 6,9 C
02.10.2012 08:11 7,9 C 88 % 1016,4 hPa 0,0 l/m 5,0 km/h (1 Bft) SW 225 6,0 C 7,4 C
02.10.2012 08:16 8,1 C 88 % 1016,4 hPa 0,0 l/m 2,2 km/h (1 Bft) SO 135 6,2 C 8,1 C
02.10.2012 08:21 8,1 C 88 % 1016,4 hPa 0,0 l/m 5,0 km/h (1 Bft) S-SO 157 6,2 C 7,6 C
02.10.2012 08:26 8,3 C 88 % 1016,3 hPa 0,0 l/m 6,5 km/h (2 Bft) S-SO 157 6,4 C 7,4 C
02.10.2012 08:31 8,4 C 88 % 1016,4 hPa 0,0 l/m 5,8 km/h (2 Bft) SO 135 6,5 C 7,7 C
02.10.2012 08:36 8,6 C 87 % 1016,3 hPa 0,0 l/m 3,2 km/h (1 Bft) S-SW 202 6,6 C 8,6 C
02.10.2012 08:41 8,8 C 87 % 1016,4 hPa 0,0 l/m 4,0 km/h (1 Bft) S 180 6,8 C 8,8 C
02.10.2012 08:46 8,9 C 87 % 1016,4 hPa 0,0 l/m 2,9 km/h (1 Bft) S 180 6,9 C 8,9 C
02.10.2012 08:51 8,9 C 86 % 1016,4 hPa 0,0 l/m 6,5 km/h (2 Bft) S-SO 157 6,7 C 8,1 C
02.10.2012 08:56 9,1 C 86 % 1016,4 hPa 0,0 l/m 2,9 km/h (1 Bft) S-SW 202 6,9 C 9,1 C
02.10.2012 09:01 9,3 C 86 % 1016,4 hPa 0,0 l/m 5,4 km/h (1 Bft) S-SO 157 7,1 C 8,8 C
02.10.2012 09:06 9,6 C 86 % 1016,4 hPa 0,0 l/m 3,6 km/h (1 Bft) S-SO 157 7,4 C 9,6 C
02.10.2012 09:11 9,7 C 85 % 1016,5 hPa 0,0 l/m 4,0 km/h (1 Bft) S-SO 157 7,3 C 9,7 C
02.10.2012 09:16 9,9 C 85 % 1016,8 hPa 0,0 l/m 4,7 km/h (1 Bft) S 180 7,5 C 9,7 C
02.10.2012 09:21 10,1 C 85 % 1016,8 hPa 0,0 l/m 4,0 km/h (1 Bft) SW 225 7,7 C 10,1 C
02.10.2012 09:26 10,4 C 85 % 1016,5 hPa 0,0 l/m 1,4 km/h (1 Bft) S 180 8,0 C 10,4 C
02.10.2012 09:31 10,8 C 84 % 1016,6 hPa 0,0 l/m 3,6 km/h (1 Bft) S-SW 202 8,2 C 10,8 C
02.10.2012 09:36 11,0 C 84 % 1016,6 hPa 0,0 l/m 2,2 km/h (1 Bft) S-SW 202 8,4 C 11,0 C
02.10.2012 09:41 11,3 C 83 % 1016,5 hPa 0,0 l/m 6,5 km/h (2 Bft) S 180 8,5 C 11,3 C
02.10.2012 09:46 11,4 C 83 % 1016,4 hPa 0,0 l/m 2,2 km/h (1 Bft) S-SW 202 8,6 C 11,4 C
02.10.2012 09:51 11,6 C 82 % 1016,6 hPa 0,0 l/m 4,0 km/h (1 Bft) S-SW 202 8,6 C 11,6 C
02.10.2012 09:56 11,8 C 82 % 1016,6 hPa 0,0 l/m 2,5 km/h (1 Bft) S-SW 202 8,8 C 11,8 C
02.10.2012 10:01 12,1 C 82 % 1016,7 hPa 0,0 l/m 2,9 km/h (1 Bft) S-SW 202 9,1 C 12,1 C
02.10.2012 10:06 12,2 C 81 % 1016,5 hPa 0,0 l/m 2,5 km/h (1 Bft) S-SO 157 9,0 C 12,2 C
02.10.2012 10:11 12,3 C 81 % 1016,4 hPa 0,0 l/m 1,4 km/h (1 Bft) S-SW 202 9,1 C 12,3 C
02.10.2012 10:16 12,3 C 81 % 1016,4 hPa 0,0 l/m 5,8 km/h (2 Bft) S 180 9,1 C 12,3 C
02.10.2012 10:21 12,4 C 81 % 1016,6 hPa 0,0 l/m 3,2 km/h (1 Bft) S-SW 202 9,2 C 12,4 C
02.10.2012 10:26 12,4 C 80 % 1016,6 hPa 0,0 l/m 4,3 km/h (1 Bft) SW 225 9,0 C 12,4 C
02.10.2012 10:31 12,6 C 79 % 1016,6 hPa 0,0 l/m 4,0 km/h (1 Bft) SW 225 9,1 C 12,6 C
02.10.2012 10:36 12,9 C 78 % 1016,6 hPa 0,0 l/m 5,8 km/h (2 Bft) S-SW 202 9,2 C 12,9 C
02.10.2012 10:41 13,2 C 77 % 1016,4 hPa 0,0 l/m 4,0 km/h (1 Bft) S-SW 202 9,3 C 13,2 C
02.10.2012 10:46 13,4 C 75 % 1016,4 hPa 0,0 l/m 1,4 km/h (1 Bft) S-SW 202 9,1 C 13,4 C
02.10.2012 10:51 13,6 C 75 % 1016,3 hPa 0,0 l/m 7,6 km/h (2 Bft) SW 225 9,3 C 13,6 C
02.10.2012 10:56 13,9 C 74 % 1016,4 hPa 0,0 l/m 3,2 km/h (1 Bft) SW 225 9,3 C 13,9 C
02.10.2012 11:01 14,1 C 74 % 1016,4 hPa 0,0 l/m 2,2 km/h (1 Bft) W-NW 292 9,5 C 14,1 C
02.10.2012 11:06 14,3 C 73 % 1016,4 hPa 0,0 l/m 6,1 km/h (2 Bft) W 270 9,5 C 14,3 C
02.10.2012 11:11 14,6 C 72 % 1016,5 hPa 0,0 l/m 15,1 km/h (3 Bft) W-SW 247 9,6 C 14,6 C
02.10.2012 11:16 14,9 C 71 % 1016,5 hPa 0,0 l/m 6,8 km/h (2 Bft) W 270 9,7 C 14,9 C
02.10.2012 11:21 14,9 C 70 % 1016,6 hPa 0,0 l/m 6,1 km/h (2 Bft) S-SW 202 9,5 C 14,9 C
02.10.2012 11:26 15,2 C 69 % 1016,5 hPa 0,0 l/m 3,2 km/h (1 Bft) W-NW 292 9,6 C 15,2 C
02.10.2012 11:31 15,4 C 69 % 1016,4 hPa 0,0 l/m 7,2 km/h (2 Bft) SW 225 9,7 C 15,4 C
02.10.2012 11:36 15,6 C 69 % 1016,4 hPa 0,0 l/m 9,4 km/h (2 Bft) W-SW 247 9,9 C 15,6 C
02.10.2012 11:41 15,8 C 68 % 1016,5 hPa 0,0 l/m 4,7 km/h (1 Bft) W 270 9,9 C 15,8 C
02.10.2012 11:46 15,9 C 67 % 1016,6 hPa 0,0 l/m 5,0 km/h (1 Bft) W 270 9,8 C 15,9 C
02.10.2012 11:51 15,9 C 66 % 1016,6 hPa 0,0 l/m 10,1 km/h (2 Bft) W-SW 247 9,6 C 15,9 C
02.10.2012 11:56 15,9 C 67 % 1016,5 hPa 0,0 l/m 7,9 km/h (2 Bft) W-SW 247 9,8 C 15,9 C
02.10.2012 12:01 15,9 C 67 % 1016,5 hPa 0,0 l/m 4,0 km/h (1 Bft) W-SW 247 9,8 C 15,9 C
02.10.2012 12:06 16,1 C 67 % 1016,5 hPa 0,0 l/m 10,4 km/h (2 Bft) W-SW 247 10,0 C 16,1 C
02.10.2012 12:11 16,3 C 67 % 1016,5 hPa 0,0 l/m 4,3 km/h (1 Bft) W 270 10,2 C 16,3 C
02.10.2012 12:16 16,5 C 67 % 1016,4 hPa 0,0 l/m 12,6 km/h (3 Bft) SW 225 10,4 C 16,5 C
02.10.2012 12:21 16,6 C 66 % 1016,4 hPa 0,0 l/m 3,6 km/h (1 Bft) W-SW 247 10,2 C 16,6 C
02.10.2012 12:26 16,8 C 66 % 1016,4 hPa 0,0 l/m 6,5 km/h (2 Bft) W-SW 247 10,4 C 16,8 C
02.10.2012 12:31 16,9 C 66 % 1016,5 hPa 0,0 l/m 9,7 km/h (2 Bft) W-SW 247 10,5 C 16,9 C
02.10.2012 12:36 16,9 C 66 % 1016,4 hPa 0,0 l/m 9,7 km/h (2 Bft) W 270 10,5 C 16,9 C
02.10.2012 12:41 17,1 C 65 % 1016,5 hPa 0,0 l/m 5,0 km/h (1 Bft) W 270 10,5 C 17,1 C
02.10.2012 12:46 17,1 C 65 % 1016,3 hPa 0,0 l/m 7,9 km/h (2 Bft) W 270 10,5 C 17,1 C
02.10.2012 12:51 17,1 C 65 % 1016,3 hPa 0,0 l/m 5,4 km/h (1 Bft) NW 315 10,5 C 17,1 C
02.10.2012 12:56 17,1 C 65 % 1016,3 hPa 0,0 l/m 2,2 km/h (1 Bft) W 270 10,5 C 17,1 C
02.10.2012 13:01 17,1 C 65 % 1016,3 hPa 0,0 l/m 5,0 km/h (1 Bft) W-SW 247 10,5 C 17,1 C
02.10.2012 13:06 17,1 C 64 % 1016,4 hPa 0,0 l/m 6,5 km/h (2 Bft) W-SW 247 10,2 C 17,1 C
02.10.2012 13:11 17,1 C 65 % 1016,3 hPa 0,0 l/m 4,7 km/h (1 Bft) S-SO 157 10,5 C 17,1 C
02.10.2012 13:16 17,1 C 64 % 1016,4 hPa 0,0 l/m 10,1 km/h (2 Bft) W-SW 247 10,2 C 17,1 C
02.10.2012 13:21 17,2 C 64 % 1016,3 hPa 0,0 l/m 15,1 km/h (3 Bft) W 270 10,3 C 17,2 C
02.10.2012 13:26 17,3 C 64 % 1016,4 hPa 0,0 l/m 7,6 km/h (2 Bft) W 270 10,4 C 17,3 C
02.10.2012 13:31 17,6 C 64 % 1016,4 hPa 0,0 l/m 1,4 km/h (1 Bft) SW 225 10,7 C 17,6 C
02.10.2012 13:36 17,9 C 64 % 1016,4 hPa 0,0 l/m 4,0 km/h (1 Bft) W 270 11,0 C 17,9 C
02.10.2012 13:41 18,1 C 62 % 1016,4 hPa 0,0 l/m 6,5 km/h (2 Bft) SW 225 10,7 C 18,1 C
02.10.2012 13:46 18,1 C 62 % 1016,3 hPa 0,0 l/m 5,0 km/h (1 Bft) W-SW 247 10,7 C 18,1 C
02.10.2012 13:51 18,1 C 62 % 1016,1 hPa 0,0 l/m 6,1 km/h (2 Bft) S 180 10,7 C 18,1 C
02.10.2012 13:56 18,2 C 63 % 1016,0 hPa 0,0 l/m 2,9 km/h (1 Bft) S 180 11,0 C 18,2 C
02.10.2012 14:01 18,4 C 62 % 1016,0 hPa 0,0 l/m 3,6 km/h (1 Bft) W-SW 247 11,0 C 18,4 C
02.10.2012 14:06 18,6 C 61 % 1016,2 hPa 0,0 l/m 13,0 km/h (3 Bft) W-SW 247 10,9 C 18,6 C
02.10.2012 14:11 18,8 C 61 % 1016,1 hPa 0,0 l/m 10,4 km/h (2 Bft) S-SW 202 11,1 C 18,8 C
02.10.2012 14:16 18,9 C 59 % 1016,1 hPa 0,0 l/m 6,1 km/h (2 Bft) SW 225 10,7 C 18,9 C
02.10.2012 14:21 18,9 C 60 % 1016,1 hPa 0,0 l/m 12,6 km/h (3 Bft) S-SW 202 11,0 C 18,9 C
02.10.2012 14:26 19,0 C 59 % 1016,1 hPa 0,0 l/m 11,5 km/h (2 Bft) S-SW 202 10,8 C 19,0 C
02.10.2012 14:31 19,1 C 59 % 1015,9 hPa 0,0 l/m 8,6 km/h (2 Bft) S-SO 157 10,9 C 19,1 C
02.10.2012 14:36 19,2 C 59 % 1015,9 hPa 0,0 l/m 3,6 km/h (1 Bft) SO 135 11,0 C 19,2 C
02.10.2012 14:41 19,3 C 59 % 1015,9 hPa 0,0 l/m 4,0 km/h (1 Bft) SW 225 11,1 C 19,3 C
02.10.2012 14:46 19,6 C 58 % 1016,0 hPa 0,0 l/m 6,5 km/h (2 Bft) SO 135 11,1 C 19,6 C
02.10.2012 14:51 19,8 C 57 % 1015,9 hPa 0,0 l/m 5,4 km/h (1 Bft) S-SW 202 11,0 C 19,8 C
02.10.2012 14:56 19,9 C 56 % 1015,8 hPa 0,0 l/m 3,6 km/h (1 Bft) S 180 10,9 C 19,9 C
02.10.2012 15:01 19,9 C 56 % 1015,8 hPa 0,0 l/m 12,6 km/h (3 Bft) S-SW 202 10,9 C 19,9 C
02.10.2012 15:06 19,6 C 56 % 1016,0 hPa 0,0 l/m 11,5 km/h (2 Bft) SW 225 10,6 C 19,6 C
02.10.2012 15:11 19,3 C 57 % 1016,0 hPa 0,0 l/m 13,0 km/h (3 Bft) S-SW 202 10,6 C 19,3 C
02.10.2012 15:16 19,1 C 58 % 1016,0 hPa 0,0 l/m 18,0 km/h (3 Bft) W-SW 247 10,6 C 19,1 C
02.10.2012 15:21 18,9 C 58 % 1016,0 hPa 0,0 l/m 6,5 km/h (2 Bft) S 180 10,5 C 18,9 C
02.10.2012 15:26 18,8 C 59 % 1016,0 hPa 0,0 l/m 14,0 km/h (3 Bft) W 270 10,6 C 18,8 C
02.10.2012 15:31 18,7 C 60 % 1016,1 hPa 0,0 l/m 10,1 km/h (2 Bft) W 270 10,8 C 18,7 C
02.10.2012 15:36 18,8 C 60 % 1016,1 hPa 0,0 l/m 7,2 km/h (2 Bft) S-SW 202 10,9 C 18,8 C
02.10.2012 15:41 18,9 C 60 % 1016,0 hPa 0,0 l/m 5,4 km/h (1 Bft) W-SW 247 11,0 C 18,9 C
02.10.2012 15:46 18,9 C 60 % 1016,0 hPa 0,0 l/m 15,1 km/h (3 Bft) SW 225 11,0 C 18,9 C
02.10.2012 15:51 18,6 C 60 % 1016,1 hPa 0,0 l/m 5,8 km/h (2 Bft) SW 225 10,7 C 18,6 C
02.10.2012 15:56 18,6 C 61 % 1016,0 hPa 0,0 l/m 7,6 km/h (2 Bft) W-SW 247 10,9 C 18,6 C
02.10.2012 16:01 18,8 C 61 % 1016,0 hPa 0,0 l/m 9,7 km/h (2 Bft) W 270 11,1 C 18,8 C
02.10.2012 16:06 19,1 C 61 % 1016,0 hPa 0,0 l/m 4,0 km/h (1 Bft) W-SW 247 11,4 C 19,1 C
02.10.2012 16:11 19,0 C 60 % 1015,9 hPa 0,0 l/m 4,3 km/h (1 Bft) W-SW 247 11,1 C 19,0 C
02.10.2012 16:16 18,9 C 61 % 1016,0 hPa 0,0 l/m 6,1 km/h (2 Bft) S-SW 202 11,2 C 18,9 C
02.10.2012 16:21 18,7 C 60 % 1015,9 hPa 0,0 l/m 3,6 km/h (1 Bft) SW 225 10,8 C 18,7 C
02.10.2012 16:26 18,7 C 61 % 1015,8 hPa 0,0 l/m 4,0 km/h (1 Bft) S-SW 202 11,0 C 18,7 C
02.10.2012 16:31 18,8 C 61 % 1015,8 hPa 0,0 l/m 7,6 km/h (2 Bft) W 270 11,1 C 18,8 C
02.10.2012 16:36 19,1 C 61 % 1015,8 hPa 0,0 l/m 8,3 km/h (2 Bft) S-SW 202 11,4 C 19,1 C
02.10.2012 16:41 19,4 C 60 % 1015,7 hPa 0,0 l/m 6,5 km/h (2 Bft) S-SW 202 11,4 C 19,4 C
02.10.2012 16:46 19,6 C 59 % 1015,6 hPa 0,0 l/m 10,4 km/h (2 Bft) S 180 11,4 C 19,6 C
02.10.2012 16:51 19,6 C 57 % 1015,7 hPa 0,0 l/m 3,6 km/h (1 Bft) S 180 10,8 C 19,6 C
02.10.2012 16:56 19,6 C 57 % 1015,7 hPa 0,0 l/m 9,4 km/h (2 Bft) S 180 10,8 C 19,6 C
02.10.2012 17:01 19,6 C 57 % 1015,7 hPa 0,0 l/m 6,1 km/h (2 Bft) S 180 10,8 C 19,6 C
02.10.2012 17:06 19,6 C 57 % 1015,7 hPa 0,0 l/m 3,6 km/h (1 Bft) S-SO 157 10,8 C 19,6 C
02.10.2012 17:11 19,4 C 57 % 1015,7 hPa 0,0 l/m 3,2 km/h (1 Bft) S-SO 157 10,7 C 19,4 C
02.10.2012 17:16 19,2 C 57 % 1015,7 hPa 0,0 l/m 6,8 km/h (2 Bft) S-SW 202 10,5 C 19,2 C
02.10.2012 17:21 18,9 C 58 % 1015,7 hPa 0,0 l/m 3,2 km/h (1 Bft) S-SO 157 10,5 C 18,9 C
02.10.2012 17:26 18,6 C 59 % 1015,7 hPa 0,0 l/m 2,2 km/h (1 Bft) S-SW 202 10,4 C 18,6 C
02.10.2012 17:31 18,4 C 59 % 1015,7 hPa 0,0 l/m 3,6 km/h (1 Bft) S-SW 202 10,2 C 18,4 C
02.10.2012 17:36 18,2 C 60 % 1015,8 hPa 0,0 l/m 0,0 km/h (0 Bft) S-SW 202 10,3 C 18,2 C
02.10.2012 17:41 18,1 C 61 % 1015,7 hPa 0,0 l/m 3,6 km/h (1 Bft) S-SO 157 10,5 C 18,1 C
02.10.2012 17:46 18,0 C 61 % 1015,8 hPa 0,0 l/m 2,9 km/h (1 Bft) S-SO 157 10,4 C 18,0 C
02.10.2012 17:51 17,9 C 61 % 1015,7 hPa 0,0 l/m 4,3 km/h (1 Bft) S 180 10,3 C 17,9 C
02.10.2012 17:56 17,8 C 62 % 1015,7 hPa 0,0 l/m 2,2 km/h (1 Bft) S-SO 157 10,4 C 17,8 C
02.10.2012 18:01 17,6 C 62 % 1015,7 hPa 0,0 l/m 2,5 km/h (1 Bft) S-SO 157 10,2 C 17,6 C
02.10.2012 18:06 17,5 C 62 % 1015,7 hPa 0,0 l/m 0,0 km/h (0 Bft) S 180 10,1 C 17,5 C
02.10.2012 18:11 17,4 C 62 % 1015,6 hPa 0,0 l/m 0,0 km/h (0 Bft) S 180 10,0 C 17,4 C
02.10.2012 18:16 17,3 C 63 % 1015,6 hPa 0,0 l/m 1,4 km/h (1 Bft) S 180 10,2 C 17,3 C
02.10.2012 18:21 17,2 C 63 % 1015,7 hPa 0,0 l/m 2,2 km/h (1 Bft) S-SO 157 10,1 C 17,2 C
02.10.2012 18:26 17,1 C 63 % 1015,6 hPa 0,0 l/m 0,0 km/h (0 Bft) S-SO 157 10,0 C 17,1 C
02.10.2012 18:31 16,9 C 64 % 1015,5 hPa 0,0 l/m 0,0 km/h (0 Bft) S-SO 157 10,0 C 16,9 C
02.10.2012 18:36 16,8 C 64 % 1015,4 hPa 0,0 l/m 2,9 km/h (1 Bft) S-SO 157 10,0 C 16,8 C
02.10.2012 18:41 16,6 C 64 % 1015,5 hPa 0,0 l/m 2,5 km/h (1 Bft) S-SO 157 9,8 C 16,6 C
02.10.2012 18:46 16,4 C 65 % 1015,5 hPa 0,0 l/m 2,5 km/h (1 Bft) S 180 9,8 C 16,4 C
02.10.2012 18:51 16,3 C 65 % 1015,7 hPa 0,0 l/m 0,0 km/h (0 Bft) S-SW 202 9,7 C 16,3 C
02.10.2012 18:56 16,1 C 66 % 1015,7 hPa 0,0 l/m 0,0 km/h (0 Bft) S 180 9,7 C 16,1 C
02.10.2012 19:01 16,1 C 66 % 1015,7 hPa 0,0 l/m 0,0 km/h (0 Bft) S-SO 157 9,7 C 16,1 C
02.10.2012 19:06 15,9 C 67 % 1015,7 hPa 0,0 l/m 2,2 km/h (1 Bft) SO 135 9,8 C 15,9 C
02.10.2012 19:11 15,9 C 67 % 1015,7 hPa 0,0 l/m 0,0 km/h (0 Bft) SO 135 9,8 C 15,9 C
02.10.2012 19:16 15,8 C 67 % 1015,7 hPa 0,0 l/m 0,0 km/h (0 Bft) SO 135 9,7 C 15,8 C
02.10.2012 19:21 15,6 C 68 % 1015,7 hPa 0,0 l/m 0,0 km/h (0 Bft) SO 135 9,7 C 15,6 C
02.10.2012 19:26 15,4 C 69 % 1015,6 hPa 0,0 l/m 2,2 km/h (1 Bft) SO 135 9,7 C 15,4 C
02.10.2012 19:31 15,3 C 69 % 1015,6 hPa 0,0 l/m 1,4 km/h (1 Bft) S-SO 157 9,6 C 15,3 C
02.10.2012 19:36 15,1 C 69 % 1015,5 hPa 0,0 l/m 2,2 km/h (1 Bft) S-SO 157 9,5 C 15,1 C
02.10.2012 19:41 14,9 C 69 % 1015,6 hPa 0,0 l/m 0,0 km/h (0 Bft) S-SO 157 9,3 C 14,9 C
02.10.2012 19:46 14,9 C 69 % 1015,5 hPa 0,0 l/m 0,0 km/h (0 Bft) S-SO 157 9,3 C 14,9 C
02.10.2012 19:51 14,9 C 69 % 1015,6 hPa 0,0 l/m 0,0 km/h (0 Bft) S-SO 157 9,3 C 14,9 C
02.10.2012 19:56 14,7 C 70 % 1015,6 hPa 0,0 l/m 2,5 km/h (1 Bft) S 180 9,3 C 14,7 C
02.10.2012 20:01 14,5 C 70 % 1015,6 hPa 0,0 l/m 0,0 km/h (0 Bft) S-SO 157 9,1 C 14,5 C
02.10.2012 20:06 14,4 C 70 % 1015,6 hPa 0,0 l/m 0,0 km/h (0 Bft) S 180 9,0 C 14,4 C
02.10.2012 20:11 14,2 C 71 % 1015,6 hPa 0,0 l/m 2,5 km/h (1 Bft) S 180 9,0 C 14,2 C
02.10.2012 20:16 14,1 C 71 % 1015,6 hPa 0,0 l/m 2,9 km/h (1 Bft) S-SO 157 8,9 C 14,1 C
02.10.2012 20:21 13,9 C 71 % 1015,6 hPa 0,0 l/m 1,8 km/h (1 Bft) S-SO 157 8,7 C 13,9 C
02.10.2012 20:26 13,7 C 72 % 1015,6 hPa 0,0 l/m 1,4 km/h (1 Bft) S-SO 157 8,7 C 13,7 C
02.10.2012 20:31 13,5 C 72 % 1015,5 hPa 0,0 l/m 0,0 km/h (0 Bft) S-SO 157 8,6 C 13,5 C
02.10.2012 20:36 13,4 C 73 % 1015,6 hPa 0,0 l/m 1,1 km/h (1 Bft) S-SO 157 8,7 C 13,4 C
02.10.2012 20:41 13,3 C 73 % 1015,6 hPa 0,0 l/m 0,0 km/h (0 Bft) S-SO 157 8,6 C 13,3 C
02.10.2012 20:46 13,1 C 73 % 1015,5 hPa 0,0 l/m 0,0 km/h (0 Bft) S-SO 157 8,4 C 13,1 C
02.10.2012 20:51 12,9 C 74 % 1015,6 hPa 0,0 l/m 0,0 km/h (0 Bft) S-SO 157 8,4 C 12,9 C
02.10.2012 20:56 12,9 C 74 % 1015,7 hPa 0,0 l/m 1,1 km/h (1 Bft) S-SO 157 8,4 C 12,9 C
02.10.2012 21:01 12,8 C 74 % 1015,3 hPa 0,0 l/m 0,0 km/h (0 Bft) S-SO 157 8,3 C 12,8 C
02.10.2012 21:06 12,6 C 75 % 1015,4 hPa 0,0 l/m 2,5 km/h (1 Bft) S-SO 157 8,3 C 12,6 C
02.10.2012 21:11 12,5 C 75 % 1015,5 hPa 0,0 l/m 0,0 km/h (0 Bft) SO 135 8,2 C 12,5 C
02.10.2012 21:16 12,4 C 76 % 1015,6 hPa 0,0 l/m 0,0 km/h (0 Bft) SO 135 8,3 C 12,4 C
02.10.2012 21:21 12,4 C 76 % 1015,6 hPa 0,0 l/m 0,0 km/h (0 Bft) S-SO 157 8,3 C 12,4 C
02.10.2012 21:26 12,4 C 77 % 1015,6 hPa 0,0 l/m 0,0 km/h (0 Bft) S 180 8,5 C 12,4 C
02.10.2012 21:31 12,4 C 76 % 1015,6 hPa 0,0 l/m 1,8 km/h (1 Bft) S-SO 157 8,3 C 12,4 C
02.10.2012 21:36 12,3 C 77 % 1015,7 hPa 0,0 l/m 0,0 km/h (0 Bft) SO 135 8,4 C 12,3 C
02.10.2012 21:41 12,3 C 77 % 1015,6 hPa 0,0 l/m 6,1 km/h (2 Bft) SO 135 8,4 C 12,3 C
02.10.2012 21:46 12,4 C 77 % 1015,6 hPa 0,0 l/m 0,0 km/h (0 Bft) S-SO 157 8,5 C 12,4 C
02.10.2012 21:51 12,5 C 77 % 1015,7 hPa 0,0 l/m 5,8 km/h (2 Bft) S 180 8,6 C 12,5 C
02.10.2012 21:56 12,6 C 77 % 1015,7 hPa 0,0 l/m 4,0 km/h (1 Bft) S-SO 157 8,7 C 12,6 C
02.10.2012 22:01 12,6 C 77 % 1015,7 hPa 0,0 l/m 8,3 km/h (2 Bft) S 180 8,7 C 12,6 C
02.10.2012 22:06 12,7 C 77 % 1015,7 hPa 0,0 l/m 4,7 km/h (1 Bft) S 180 8,8 C 12,7 C
02.10.2012 22:11 12,7 C 77 % 1015,6 hPa 0,0 l/m 5,4 km/h (1 Bft) S 180 8,8 C 12,7 C
02.10.2012 22:16 12,7 C 77 % 1015,7 hPa 0,0 l/m 6,1 km/h (2 Bft) S-SO 157 8,8 C 12,7 C
02.10.2012 22:21 12,7 C 77 % 1015,7 hPa 0,0 l/m 7,2 km/h (2 Bft) S-SO 157 8,8 C 12,7 C
02.10.2012 22:26 12,7 C 77 % 1015,6 hPa 0,0 l/m 3,6 km/h (1 Bft) S-SO 157 8,8 C 12,7 C
02.10.2012 22:31 12,8 C 77 % 1015,6 hPa 0,0 l/m 9,7 km/h (2 Bft) S-SO 157 8,9 C 12,8 C
02.10.2012 22:36 12,8 C 77 % 1015,7 hPa 0,0 l/m 6,1 km/h (2 Bft) S-SW 202 8,9 C 12,8 C
02.10.2012 22:41 12,8 C 77 % 1015,7 hPa 0,0 l/m 6,1 km/h (2 Bft) S-SW 202 8,9 C 12,8 C
02.10.2012 22:46 12,8 C 77 % 1015,7 hPa 0,0 l/m 4,0 km/h (1 Bft) S 180 8,9 C 12,8 C
02.10.2012 22:51 12,8 C 77 % 1015,7 hPa 0,0 l/m 1,8 km/h (1 Bft) SO 135 8,9 C 12,8 C
02.10.2012 22:56 12,9 C 77 % 1015,7 hPa 0,0 l/m 0,0 km/h (0 Bft) SO 135 9,0 C 12,9 C
02.10.2012 23:01 12,9 C 78 % 1015,6 hPa 0,0 l/m 1,8 km/h (1 Bft) SO 135 9,2 C 12,9 C
02.10.2012 23:06 12,8 C 78 % 1015,6 hPa 0,0 l/m 2,5 km/h (1 Bft) S 180 9,1 C 12,8 C
02.10.2012 23:11 12,8 C 78 % 1015,6 hPa 0,0 l/m 4,3 km/h (1 Bft) S 180 9,1 C 12,8 C
02.10.2012 23:16 12,7 C 78 % 1015,6 hPa 0,0 l/m 3,2 km/h (1 Bft) S 180 9,0 C 12,7 C
02.10.2012 23:21 12,6 C 78 % 1015,7 hPa 0,0 l/m 2,2 km/h (1 Bft) S 180 8,9 C 12,6 C
02.10.2012 23:26 12,6 C 79 % 1015,7 hPa 0,0 l/m 3,2 km/h (1 Bft) S 180 9,1 C 12,6 C
02.10.2012 23:31 12,5 C 79 % 1015,6 hPa 0,0 l/m 2,5 km/h (1 Bft) S-SO 157 9,0 C 12,5 C
02.10.2012 23:36 12,5 C 79 % 1015,7 hPa 0,0 l/m 2,5 km/h (1 Bft) S-SW 202 9,0 C 12,5 C
02.10.2012 23:41 12,4 C 79 % 1015,6 hPa 0,0 l/m 4,0 km/h (1 Bft) SO 135 8,9 C 12,4 C
02.10.2012 23:46 12,4 C 79 % 1015,6 hPa 0,0 l/m 5,4 km/h (1 Bft) S 180 8,9 C 12,4 C
02.10.2012 23:51 12,4 C 80 % 1015,6 hPa 0,0 l/m 3,2 km/h (1 Bft) S 180 9,0 C 12,4 C
02.10.2012 23:56 12,4 C 80 % 1015,6 hPa 0,0 l/m 1,4 km/h (1 Bft) S 180 9,0 C 12,4 C
_ Min-Zeit 05:16 14:56 21:01 - 00:31 - - 05:16 05:36
Minimum _ 6,4 C 56 % 1015,3 hPa - 0,0 km/h (0 Bft) - - 4,4 C 5,2 C
_ Max-Zeit 14:56 06:06 09:16 00:01 15:16 - - 16:41 14:56
Maximum _ 19,9 C 88 % 1016,8 hPa 0,0 l/m 18,0 km/h
W-SW (3 Bft)
- - 11,4 C 19,9 C
Durchschnitt _ 12,4 C 75 % 1015,9 hPa #0,0 l/m 3,8 km/h (1 Bft) S-SO - 8,0 C 12,4 C
(c) by David Heller